Alpha, Ohio
Current Conditions -  °F | °C
As of 9:58 AM on Monday 24 Nov 2014 (Local Time) from KFFO Reporting Station
Light Rain Light Rain  
Wind Chill: 57°   Ceiling: 3800
Heat Index: 57°   Visibility: 4mi
Dew Point: 53°   Wind: 21mph
Humidity: 88%   Direction: 220°SW
Pressure: 29.3"   Gusts: 37mph
Location:  39.71°N, 84.02°W
Report Text: KFFO 241458Z 22018G32KT 4SM -RA BR SCT027 BKN038 OVC065 14/12 A2930 RMK AO2A PK WND 20041/38 VIS S-SW 2 SLP924 P0018 60018 T01370117 20041 53007
Loading
Personal Weather Stations






























Interactive Weather Map New forecast layout! Learn more

10-Day Weather Forecast

Advertisements
Track Severe Weather on mobile